sensor_id;sensor_type;location;lat;lon;timestamp;temperature;humidity
15013;DHT22;7603;49.432;11.418;2024-03-02T00:00:11;6.30;99.90
15013;DHT22;7603;49.432;11.418;2024-03-02T00:02:45;6.30;99.90
15013;DHT22;7603;49.432;11.418;2024-03-02T00:05:12;6.30;99.90
15013;DHT22;7603;49.432;11.418;2024-03-02T00:07:42;6.30;99.90
15013;DHT22;7603;49.432;11.418;2024-03-02T00:10:09;6.30;99.90
15013;DHT22;7603;49.432;11.418;2024-03-02T00:12:41;6.40;99.90
15013;DHT22;7603;49.432;11.418;2024-03-02T00:17:53;6.40;99.90
15013;DHT22;7603;49.432;11.418;2024-03-02T00:20:22;6.40;99.90
15013;DHT22;7603;49.432;11.418;2024-03-02T00:22:48;6.50;99.90
15013;DHT22;7603;49.432;11.418;2024-03-02T00:25:14;6.50;99.90
15013;DHT22;7603;49.432;11.418;2024-03-02T00:27:40;6.50;99.90
15013;DHT22;7603;49.432;11.418;2024-03-02T00:33:00;6.60;99.90
15013;DHT22;7603;49.432;11.418;2024-03-02T00:35:26;6.60;99.90
15013;DHT22;7603;49.432;11.418;2024-03-02T00:37:52;6.60;99.90
15013;DHT22;7603;49.432;11.418;2024-03-02T00:40:17;6.60;99.90
15013;DHT22;7603;49.432;11.418;2024-03-02T00:42:44;6.70;99.90
15013;DHT22;7603;49.432;11.418;2024-03-02T00:45:10;6.70;99.90
15013;DHT22;7603;49.432;11.418;2024-03-02T00:47:39;6.80;99.90
15013;DHT22;7603;49.432;11.418;2024-03-02T00:50:05;6.80;99.90
15013;DHT22;7603;49.432;11.418;2024-03-02T00:52:32;6.90;99.90
15013;DHT22;7603;49.432;11.418;2024-03-02T00:54:58;6.80;99.90
15013;DHT22;7603;49.432;11.418;2024-03-02T00:57:24;6.90;99.90
15013;DHT22;7603;49.432;11.418;2024-03-02T00:59:51;6.90;99.90
15013;DHT22;7603;49.432;11.418;2024-03-02T01:02:17;6.90;99.90
15013;DHT22;7603;49.432;11.418;2024-03-02T01:04:45;6.90;99.90
15013;DHT22;7603;49.432;11.418;2024-03-02T01:07:11;7.00;99.90
15013;DHT22;7603;49.432;11.418;2024-03-02T01:09:36;6.90;99.90
15013;DHT22;7603;49.432;11.418;2024-03-02T01:12:02;6.90;99.90
15013;DHT22;7603;49.432;11.418;2024-03-02T01:14:28;7.00;99.90
15013;DHT22;7603;49.432;11.418;2024-03-02T01:16:53;7.00;99.90
15013;DHT22;7603;49.432;11.418;2024-03-02T01:19:19;6.90;99.90
15013;DHT22;7603;49.432;11.418;2024-03-02T01:21:45;6.90;99.90
15013;DHT22;7603;49.432;11.418;2024-03-02T01:24:10;6.90;99.90
15013;DHT22;7603;49.432;11.418;2024-03-02T01:26:36;6.90;99.90
15013;DHT22;7603;49.432;11.418;2024-03-02T01:29:01;6.90;99.90
15013;DHT22;7603;49.432;11.418;2024-03-02T01:31:27;6.90;99.90
15013;DHT22;7603;49.432;11.418;2024-03-02T01:33:53;6.90;99.90
15013;DHT22;7603;49.432;11.418;2024-03-02T01:36:18;6.80;99.90
15013;DHT22;7603;49.432;11.418;2024-03-02T01:38:44;6.80;99.90
15013;DHT22;7603;49.432;11.418;2024-03-02T01:41:10;6.90;99.90
15013;DHT22;7603;49.432;11.418;2024-03-02T01:43:35;6.90;99.90
15013;DHT22;7603;49.432;11.418;2024-03-02T01:46:01;6.80;99.90
15013;DHT22;7603;49.432;11.418;2024-03-02T01:48:27;6.80;99.90
15013;DHT22;7603;49.432;11.418;2024-03-02T01:50:52;6.80;99.90
15013;DHT22;7603;49.432;11.418;2024-03-02T01:53:18;6.80;99.90
15013;DHT22;7603;49.432;11.418;2024-03-02T01:55:44;6.80;99.90
15013;DHT22;7603;49.432;11.418;2024-03-02T01:58:10;6.80;99.90
15013;DHT22;7603;49.432;11.418;2024-03-02T02:00:36;6.80;99.90
15013;DHT22;7603;49.432;11.418;2024-03-02T02:03:02;6.80;99.90
15013;DHT22;7603;49.432;11.418;2024-03-02T02:05:28;6.80;99.90
15013;DHT22;7603;49.432;11.418;2024-03-02T02:07:54;6.80;99.90
15013;DHT22;7603;49.432;11.418;2024-03-02T02:10:19;6.80;99.90
15013;DHT22;7603;49.432;11.418;2024-03-02T02:12:45;6.70;99.90
15013;DHT22;7603;49.432;11.418;2024-03-02T02:15:30;6.70;99.90
15013;DHT22;7603;49.432;11.418;2024-03-02T02:17:57;6.70;99.90
15013;DHT22;7603;49.432;11.418;2024-03-02T02:20:23;6.70;99.90
15013;DHT22;7603;49.432;11.418;2024-03-02T02:22:59;6.70;99.90
15013;DHT22;7603;49.432;11.418;2024-03-02T02:25:25;6.60;99.90
15013;DHT22;7603;49.432;11.418;2024-03-02T02:27:51;6.60;99.90
15013;DHT22;7603;49.432;11.418;2024-03-02T02:30:26;6.60;99.90
15013;DHT22;7603;49.432;11.418;2024-03-02T02:32:52;6.60;99.90
15013;DHT22;7603;49.432;11.418;2024-03-02T02:35:18;6.60;99.90
15013;DHT22;7603;49.432;11.418;2024-03-02T02:37:45;6.50;99.90
15013;DHT22;7603;49.432;11.418;2024-03-02T02:40:12;6.50;99.90
15013;DHT22;7603;49.432;11.418;2024-03-02T02:42:38;6.50;99.90
15013;DHT22;7603;49.432;11.418;2024-03-02T02:45:05;6.50;99.90
15013;DHT22;7603;49.432;11.418;2024-03-02T02:47:31;6.50;99.90
15013;DHT22;7603;49.432;11.418;2024-03-02T02:50:03;6.50;99.90
15013;DHT22;7603;49.432;11.418;2024-03-02T02:52:36;6.50;99.90
15013;DHT22;7603;49.432;11.418;2024-03-02T02:55:04;6.50;99.90
15013;DHT22;7603;49.432;11.418;2024-03-02T02:57:32;6.60;99.90
15013;DHT22;7603;49.432;11.418;2024-03-02T03:00:08;6.60;99.90
15013;DHT22;7603;49.432;11.418;2024-03-02T03:02:40;6.60;99.90
15013;DHT22;7603;49.432;11.418;2024-03-02T03:05:08;6.60;99.90
15013;DHT22;7603;49.432;11.418;2024-03-02T03:07:34;6.70;99.90
15013;DHT22;7603;49.432;11.418;2024-03-02T03:10:00;6.70;99.90
15013;DHT22;7603;49.432;11.418;2024-03-02T03:12:26;6.70;99.90
15013;DHT22;7603;49.432;11.418;2024-03-02T03:14:52;6.80;99.90
15013;DHT22;7603;49.432;11.418;2024-03-02T03:17:18;6.80;99.90
15013;DHT22;7603;49.432;11.418;2024-03-02T03:19:43;6.80;99.90
15013;DHT22;7603;49.432;11.418;2024-03-02T03:22:09;6.80;99.90
15013;DHT22;7603;49.432;11.418;2024-03-02T03:24:35;6.90;99.90
15013;DHT22;7603;49.432;11.418;2024-03-02T03:27:00;6.80;99.90
15013;DHT22;7603;49.432;11.418;2024-03-02T03:29:26;6.90;99.90
15013;DHT22;7603;49.432;11.418;2024-03-02T03:31:52;6.80;99.90
15013;DHT22;7603;49.432;11.418;2024-03-02T03:34:17;6.80;99.90
15013;DHT22;7603;49.432;11.418;2024-03-02T03:36:43;6.80;99.90
15013;DHT22;7603;49.432;11.418;2024-03-02T03:39:09;6.80;99.90
15013;DHT22;7603;49.432;11.418;2024-03-02T03:41:34;6.80;99.90
15013;DHT22;7603;49.432;11.418;2024-03-02T03:44:00;6.80;99.90
15013;DHT22;7603;49.432;11.418;2024-03-02T03:46:25;6.80;99.90
15013;DHT22;7603;49.432;11.418;2024-03-02T03:48:51;6.80;99.90
15013;DHT22;7603;49.432;11.418;2024-03-02T03:51:17;6.80;99.90
15013;DHT22;7603;49.432;11.418;2024-03-02T03:53:42;6.80;99.90
15013;DHT22;7603;49.432;11.418;2024-03-02T03:56:08;6.80;99.90
15013;DHT22;7603;49.432;11.418;2024-03-02T03:58:33;6.80;99.90
15013;DHT22;7603;49.432;11.418;2024-03-02T04:00:59;6.80;99.90
15013;DHT22;7603;49.432;11.418;2024-03-02T04:03:24;6.80;99.90
15013;DHT22;7603;49.432;11.418;2024-03-02T04:05:51;6.80;99.90
15013;DHT22;7603;49.432;11.418;2024-03-02T04:08:16;6.80;99.90
15013;DHT22;7603;49.432;11.418;2024-03-02T04:10:42;6.80;99.90
15013;DHT22;7603;49.432;11.418;2024-03-02T04:13:08;6.80;99.90
15013;DHT22;7603;49.432;11.418;2024-03-02T04:15:33;6.80;99.90
15013;DHT22;7603;49.432;11.418;2024-03-02T04:17:59;6.80;99.90
15013;DHT22;7603;49.432;11.418;2024-03-02T04:20:24;6.80;99.90
15013;DHT22;7603;49.432;11.418;2024-03-02T04:22:51;6.80;99.90
15013;DHT22;7603;49.432;11.418;2024-03-02T04:25:16;6.80;99.90
15013;DHT22;7603;49.432;11.418;2024-03-02T04:27:42;6.80;99.90
15013;DHT22;7603;49.432;11.418;2024-03-02T04:30:07;6.80;99.90
15013;DHT22;7603;49.432;11.418;2024-03-02T04:32:33;6.80;99.90
15013;DHT22;7603;49.432;11.418;2024-03-02T04:34:59;6.80;99.90
15013;DHT22;7603;49.432;11.418;2024-03-02T04:37:24;6.70;99.90
15013;DHT22;7603;49.432;11.418;2024-03-02T04:39:50;6.70;99.90
15013;DHT22;7603;49.432;11.418;2024-03-02T04:42:16;6.70;99.90
15013;DHT22;7603;49.432;11.418;2024-03-02T04:44:41;6.70;99.90
15013;DHT22;7603;49.432;11.418;2024-03-02T04:47:07;6.70;99.90
15013;DHT22;7603;49.432;11.418;2024-03-02T04:49:32;6.60;99.90
15013;DHT22;7603;49.432;11.418;2024-03-02T04:51:58;6.60;99.90
15013;DHT22;7603;49.432;11.418;2024-03-02T04:54:24;6.60;99.90
15013;DHT22;7603;49.432;11.418;2024-03-02T04:56:49;6.60;99.90
15013;DHT22;7603;49.432;11.418;2024-03-02T04:59:18;6.60;99.90
15013;DHT22;7603;49.432;11.418;2024-03-02T05:01:45;6.50;99.90
15013;DHT22;7603;49.432;11.418;2024-03-02T05:04:10;6.50;99.90
15013;DHT22;7603;49.432;11.418;2024-03-02T05:06:38;6.50;99.90
15013;DHT22;7603;49.432;11.418;2024-03-02T05:09:04;6.50;99.90
15013;DHT22;7603;49.432;11.418;2024-03-02T05:11:30;6.50;99.90
15013;DHT22;7603;49.432;11.418;2024-03-02T05:14:05;6.50;99.90
15013;DHT22;7603;49.432;11.418;2024-03-02T05:16:38;6.40;99.90
15013;DHT22;7603;49.432;11.418;2024-03-02T05:19:07;6.50;99.90
15013;DHT22;7603;49.432;11.418;2024-03-02T05:21:33;6.50;99.90
15013;DHT22;7603;49.432;11.418;2024-03-02T05:23:59;6.50;99.90
15013;DHT22;7603;49.432;11.418;2024-03-02T05:26:25;6.50;99.90
15013;DHT22;7603;49.432;11.418;2024-03-02T05:28:50;6.50;99.90
15013;DHT22;7603;49.432;11.418;2024-03-02T05:31:16;6.50;99.90
15013;DHT22;7603;49.432;11.418;2024-03-02T05:33:42;6.50;99.90
15013;DHT22;7603;49.432;11.418;2024-03-02T05:36:08;6.50;99.90
15013;DHT22;7603;49.432;11.418;2024-03-02T05:38:37;6.40;99.90
15013;DHT22;7603;49.432;11.418;2024-03-02T05:41:03;6.50;99.90
15013;DHT22;7603;49.432;11.418;2024-03-02T05:43:29;6.50;99.90
15013;DHT22;7603;49.432;11.418;2024-03-02T05:45:54;6.50;99.90
15013;DHT22;7603;49.432;11.418;2024-03-02T05:48:20;6.50;99.90
15013;DHT22;7603;49.432;11.418;2024-03-02T05:50:45;6.50;99.90
15013;DHT22;7603;49.432;11.418;2024-03-02T05:53:11;6.50;99.90
15013;DHT22;7603;49.432;11.418;2024-03-02T05:55:37;6.50;99.90
15013;DHT22;7603;49.432;11.418;2024-03-02T05:58:03;6.40;99.90
15013;DHT22;7603;49.432;11.418;2024-03-02T06:00:31;6.40;99.90
15013;DHT22;7603;49.432;11.418;2024-03-02T06:02:57;6.40;99.90
15013;DHT22;7603;49.432;11.418;2024-03-02T06:05:23;6.40;99.90
15013;DHT22;7603;49.432;11.418;2024-03-02T06:07:50;6.40;99.90
15013;DHT22;7603;49.432;11.418;2024-03-02T06:10:16;6.30;99.90
15013;DHT22;7603;49.432;11.418;2024-03-02T06:12:42;6.40;99.90
15013;DHT22;7603;49.432;11.418;2024-03-02T06:15:07;6.30;99.90
15013;DHT22;7603;49.432;11.418;2024-03-02T06:17:35;6.30;99.90
15013;DHT22;7603;49.432;11.418;2024-03-02T06:20:01;6.30;99.90
15013;DHT22;7603;49.432;11.418;2024-03-02T06:22:26;6.30;99.90
15013;DHT22;7603;49.432;11.418;2024-03-02T06:24:52;6.30;99.90
15013;DHT22;7603;49.432;11.418;2024-03-02T06:27:18;6.30;99.90
15013;DHT22;7603;49.432;11.418;2024-03-02T06:29:43;6.30;99.90
15013;DHT22;7603;49.432;11.418;2024-03-02T06:32:09;6.30;99.90
15013;DHT22;7603;49.432;11.418;2024-03-02T06:34:34;6.30;99.90
15013;DHT22;7603;49.432;11.418;2024-03-02T06:37:00;6.30;99.90
15013;DHT22;7603;49.432;11.418;2024-03-02T06:39:26;6.30;99.90
15013;DHT22;7603;49.432;11.418;2024-03-02T06:41:52;6.30;99.90
15013;DHT22;7603;49.432;11.418;2024-03-02T06:44:17;6.30;99.90
15013;DHT22;7603;49.432;11.418;2024-03-02T06:46:43;6.40;99.90
15013;DHT22;7603;49.432;11.418;2024-03-02T06:49:09;6.40;99.90
15013;DHT22;7603;49.432;11.418;2024-03-02T06:51:38;6.50;99.90
15013;DHT22;7603;49.432;11.418;2024-03-02T06:54:03;6.50;99.90
15013;DHT22;7603;49.432;11.418;2024-03-02T06:56:29;6.60;99.90
15013;DHT22;7603;49.432;11.418;2024-03-02T06:58:56;6.60;99.90
15013;DHT22;7603;49.432;11.418;2024-03-02T07:01:21;6.80;99.90
15013;DHT22;7603;49.432;11.418;2024-03-02T07:03:47;6.90;99.90
15013;DHT22;7603;49.432;11.418;2024-03-02T07:06:12;6.90;99.90
15013;DHT22;7603;49.432;11.418;2024-03-02T07:08:38;7.00;99.90
15013;DHT22;7603;49.432;11.418;2024-03-02T07:11:04;7.10;99.90
15013;DHT22;7603;49.432;11.418;2024-03-02T07:13:29;7.20;99.90
15013;DHT22;7603;49.432;11.418;2024-03-02T07:15:55;7.30;99.90
15013;DHT22;7603;49.432;11.418;2024-03-02T07:18:41;7.40;99.90
15013;DHT22;7603;49.432;11.418;2024-03-02T07:21:07;7.50;99.90
15013;DHT22;7603;49.432;11.418;2024-03-02T07:23:34;7.70;99.90
15013;DHT22;7603;49.432;11.418;2024-03-02T07:26:00;7.90;99.90
15013;DHT22;7603;49.432;11.418;2024-03-02T07:28:27;8.10;99.90
15013;DHT22;7603;49.432;11.418;2024-03-02T07:33:25;8.50;99.90
15013;DHT22;7603;49.432;11.418;2024-03-02T07:35:50;8.70;99.90
15013;DHT22;7603;49.432;11.418;2024-03-02T07:38:16;8.90;99.90
15013;DHT22;7603;49.432;11.418;2024-03-02T07:40:42;9.10;99.90
15013;DHT22;7603;49.432;11.418;2024-03-02T07:43:08;9.20;99.90
15013;DHT22;7603;49.432;11.418;2024-03-02T07:45:34;9.20;99.90
15013;DHT22;7603;49.432;11.418;2024-03-02T07:48:01;9.30;99.90
15013;DHT22;7603;49.432;11.418;2024-03-02T07:50:29;9.30;99.90
15013;DHT22;7603;49.432;11.418;2024-03-02T07:52:55;9.20;99.90
15013;DHT22;7603;49.432;11.418;2024-03-02T07:55:21;9.30;99.90
15013;DHT22;7603;49.432;11.418;2024-03-02T07:57:49;9.40;99.90
15013;DHT22;7603;49.432;11.418;2024-03-02T08:00:15;9.40;99.90
15013;DHT22;7603;49.432;11.418;2024-03-02T08:02:41;9.70;99.90
15013;DHT22;7603;49.432;11.418;2024-03-02T08:05:08;9.80;99.90
15013;DHT22;7603;49.432;11.418;2024-03-02T08:07:34;10.10;99.90
15013;DHT22;7603;49.432;11.418;2024-03-02T08:10:00;10.40;99.90
15013;DHT22;7603;49.432;11.418;2024-03-02T08:12:25;10.70;99.90
15013;DHT22;7603;49.432;11.418;2024-03-02T08:14:51;11.00;99.90
15013;DHT22;7603;49.432;11.418;2024-03-02T08:17:17;11.40;99.90
15013;DHT22;7603;49.432;11.418;2024-03-02T08:19:43;11.80;99.90
15013;DHT22;7603;49.432;11.418;2024-03-02T08:22:09;12.20;99.90
15013;DHT22;7603;49.432;11.418;2024-03-02T08:24:35;12.60;99.90
15013;DHT22;7603;49.432;11.418;2024-03-02T08:27:01;12.90;99.90
15013;DHT22;7603;49.432;11.418;2024-03-02T08:29:27;13.30;99.90
15013;DHT22;7603;49.432;11.418;2024-03-02T08:31:54;13.70;99.90
15013;DHT22;7603;49.432;11.418;2024-03-02T08:34:19;14.00;99.90
15013;DHT22;7603;49.432;11.418;2024-03-02T08:36:46;14.40;99.90
15013;DHT22;7603;49.432;11.418;2024-03-02T08:39:12;14.80;99.90
15013;DHT22;7603;49.432;11.418;2024-03-02T08:41:47;15.10;99.90
15013;DHT22;7603;49.432;11.418;2024-03-02T08:44:13;15.30;99.90
15013;DHT22;7603;49.432;11.418;2024-03-02T08:46:40;15.50;99.90
15013;DHT22;7603;49.432;11.418;2024-03-02T08:49:06;15.50;99.90
15013;DHT22;7603;49.432;11.418;2024-03-02T08:51:32;15.50;99.90
15013;DHT22;7603;49.432;11.418;2024-03-02T08:53:58;15.60;99.90
15013;DHT22;7603;49.432;11.418;2024-03-02T08:56:24;16.00;99.90
15013;DHT22;7603;49.432;11.418;2024-03-02T08:58:51;16.60;99.90
15013;DHT22;7603;49.432;11.418;2024-03-02T09:01:17;17.20;99.30
15013;DHT22;7603;49.432;11.418;2024-03-02T09:03:44;17.70;97.00
15013;DHT22;7603;49.432;11.418;2024-03-02T09:06:13;17.90;94.90
15013;DHT22;7603;49.432;11.418;2024-03-02T09:08:39;18.20;94.10
15013;DHT22;7603;49.432;11.418;2024-03-02T09:11:06;18.50;93.30
15013;DHT22;7603;49.432;11.418;2024-03-02T09:13:32;18.90;92.10
15013;DHT22;7603;49.432;11.418;2024-03-02T09:15:58;19.30;90.70
15013;DHT22;7603;49.432;11.418;2024-03-02T09:18:24;19.70;89.70
15013;DHT22;7603;49.432;11.418;2024-03-02T09:20:50;20.10;84.70
15013;DHT22;7603;49.432;11.418;2024-03-02T09:23:15;20.30;83.00
15013;DHT22;7603;49.432;11.418;2024-03-02T09:25:41;20.80;79.60
15013;DHT22;7603;49.432;11.418;2024-03-02T09:28:06;21.10;76.40
15013;DHT22;7603;49.432;11.418;2024-03-02T09:30:33;21.10;72.80
15013;DHT22;7603;49.432;11.418;2024-03-02T09:32:58;21.10;73.40
15013;DHT22;7603;49.432;11.418;2024-03-02T09:35:24;21.20;72.10
15013;DHT22;7603;49.432;11.418;2024-03-02T09:37:50;21.10;72.60
15013;DHT22;7603;49.432;11.418;2024-03-02T09:40:16;20.70;71.80
15013;DHT22;7603;49.432;11.418;2024-03-02T09:42:42;20.30;72.60
15013;DHT22;7603;49.432;11.418;2024-03-02T09:45:09;20.20;73.00
15013;DHT22;7603;49.432;11.418;2024-03-02T09:47:35;20.30;71.90
15013;DHT22;7603;49.432;11.418;2024-03-02T09:50:01;20.50;71.90
15013;DHT22;7603;49.432;11.418;2024-03-02T09:52:26;20.60;70.20
15013;DHT22;7603;49.432;11.418;2024-03-02T09:54:52;20.70;69.70
15013;DHT22;7603;49.432;11.418;2024-03-02T09:57:19;20.90;69.30
15013;DHT22;7603;49.432;11.418;2024-03-02T09:59:44;21.00;68.70
15013;DHT22;7603;49.432;11.418;2024-03-02T10:02:11;21.10;68.00
15013;DHT22;7603;49.432;11.418;2024-03-02T10:04:36;21.20;67.00
15013;DHT22;7603;49.432;11.418;2024-03-02T10:07:16;21.30;66.20
15013;DHT22;7603;49.432;11.418;2024-03-02T10:09:43;21.50;66.10
15013;DHT22;7603;49.432;11.418;2024-03-02T10:12:11;22.00;63.80
15013;DHT22;7603;49.432;11.418;2024-03-02T10:14:37;22.50;64.00
15013;DHT22;7603;49.432;11.418;2024-03-02T10:17:07;23.20;61.90
15013;DHT22;7603;49.432;11.418;2024-03-02T10:19:33;23.70;60.90
15013;DHT22;7603;49.432;11.418;2024-03-02T10:22:01;23.90;58.80
15013;DHT22;7603;49.432;11.418;2024-03-02T10:24:34;23.70;58.90
15013;DHT22;7603;49.432;11.418;2024-03-02T10:27:00;23.60;58.60
15013;DHT22;7603;49.432;11.418;2024-03-02T10:29:29;23.60;57.80
15013;DHT22;7603;49.432;11.418;2024-03-02T10:31:55;23.60;57.50
15013;DHT22;7603;49.432;11.418;2024-03-02T10:34:21;23.40;57.20
15013;DHT22;7603;49.432;11.418;2024-03-02T10:36:47;23.20;57.60
15013;DHT22;7603;49.432;11.418;2024-03-02T10:39:14;23.30;57.50
15013;DHT22;7603;49.432;11.418;2024-03-02T10:41:40;23.70;56.60
15013;DHT22;7603;49.432;11.418;2024-03-02T10:44:07;24.30;55.80
15013;DHT22;7603;49.432;11.418;2024-03-02T10:46:35;24.60;54.80
15013;DHT22;7603;49.432;11.418;2024-03-02T10:49:01;24.60;53.60
15013;DHT22;7603;49.432;11.418;2024-03-02T10:51:28;24.00;54.50
15013;DHT22;7603;49.432;11.418;2024-03-02T10:53:58;23.40;54.50
15013;DHT22;7603;49.432;11.418;2024-03-02T10:56:44;23.20;54.90
15013;DHT22;7603;49.432;11.418;2024-03-02T10:59:37;23.00;54.90
15013;DHT22;7603;49.432;11.418;2024-03-02T11:02:05;22.90;55.80
15013;DHT22;7603;49.432;11.418;2024-03-02T11:04:34;22.50;55.70
15013;DHT22;7603;49.432;11.418;2024-03-02T11:07:09;22.00;56.90
15013;DHT22;7603;49.432;11.418;2024-03-02T11:09:59;22.10;57.30
15013;DHT22;7603;49.432;11.418;2024-03-02T11:12:56;22.80;56.20
15013;DHT22;7603;49.432;11.418;2024-03-02T11:15:21;24.00;54.10
15013;DHT22;7603;49.432;11.418;2024-03-02T11:17:49;24.60;52.30
15013;DHT22;7603;49.432;11.418;2024-03-02T11:20:15;24.30;52.20
15013;DHT22;7603;49.432;11.418;2024-03-02T11:22:41;23.60;52.30
15013;DHT22;7603;49.432;11.418;2024-03-02T11:25:23;23.10;53.40
15013;DHT22;7603;49.432;11.418;2024-03-02T11:33:06;21.90;55.20
15013;DHT22;7603;49.432;11.418;2024-03-02T11:35:36;21.70;55.70
15013;DHT22;7603;49.432;11.418;2024-03-02T11:38:07;22.00;55.70
15013;DHT22;7603;49.432;11.418;2024-03-02T11:40:32;22.20;55.70
15013;DHT22;7603;49.432;11.418;2024-03-02T11:43:01;21.90;55.20
15013;DHT22;7603;49.432;11.418;2024-03-02T11:45:27;21.60;55.70
15013;DHT22;7603;49.432;11.418;2024-03-02T11:47:54;21.10;56.20
15013;DHT22;7603;49.432;11.418;2024-03-02T11:50:36;20.70;56.80
15013;DHT22;7603;49.432;11.418;2024-03-02T11:53:09;20.70;57.50
15013;DHT22;7603;49.432;11.418;2024-03-02T11:55:36;21.30;57.00
15013;DHT22;7603;49.432;11.418;2024-03-02T11:58:03;21.60;55.90
15013;DHT22;7603;49.432;11.418;2024-03-02T12:00:29;21.70;56.10
15013;DHT22;7603;49.432;11.418;2024-03-02T12:05:30;21.10;57.00
15013;DHT22;7603;49.432;11.418;2024-03-02T12:08:05;21.30;58.20
15013;DHT22;7603;49.432;11.418;2024-03-02T12:10:35;22.00;55.80
15013;DHT22;7603;49.432;11.418;2024-03-02T12:13:03;22.70;55.10
15013;DHT22;7603;49.432;11.418;2024-03-02T12:15:32;23.40;54.10
15013;DHT22;7603;49.432;11.418;2024-03-02T12:17:59;23.90;52.70
15013;DHT22;7603;49.432;11.418;2024-03-02T12:20:26;24.10;52.80
15013;DHT22;7603;49.432;11.418;2024-03-02T12:22:53;24.50;51.30
15013;DHT22;7603;49.432;11.418;2024-03-02T12:25:20;24.80;50.60
15013;DHT22;7603;49.432;11.418;2024-03-02T12:27:47;25.20;49.90
15013;DHT22;7603;49.432;11.418;2024-03-02T12:30:16;25.80;48.70
15013;DHT22;7603;49.432;11.418;2024-03-02T12:32:42;26.40;48.30
15013;DHT22;7603;49.432;11.418;2024-03-02T12:35:08;27.20;47.20
15013;DHT22;7603;49.432;11.418;2024-03-02T12:37:44;27.60;45.50
15013;DHT22;7603;49.432;11.418;2024-03-02T12:40:14;28.00;45.30
15013;DHT22;7603;49.432;11.418;2024-03-02T12:42:40;28.60;44.70
15013;DHT22;7603;49.432;11.418;2024-03-02T12:45:08;29.30;43.80
15013;DHT22;7603;49.432;11.418;2024-03-02T12:47:34;29.80;42.50
15013;DHT22;7603;49.432;11.418;2024-03-02T12:50:00;30.00;41.50
15013;DHT22;7603;49.432;11.418;2024-03-02T12:52:26;30.10;41.00
15013;DHT22;7603;49.432;11.418;2024-03-02T12:54:52;30.40;40.90
15013;DHT22;7603;49.432;11.418;2024-03-02T12:57:20;30.90;40.20
15013;DHT22;7603;49.432;11.418;2024-03-02T12:59:46;31.10;38.40
15013;DHT22;7603;49.432;11.418;2024-03-02T13:02:19;30.90;38.30
15013;DHT22;7603;49.432;11.418;2024-03-02T13:04:52;30.90;38.40
15013;DHT22;7603;49.432;11.418;2024-03-02T13:07:20;31.30;38.00
15013;DHT22;7603;49.432;11.418;2024-03-02T13:09:48;31.40;37.40
15013;DHT22;7603;49.432;11.418;2024-03-02T13:12:16;31.10;37.40
15013;DHT22;7603;49.432;11.418;2024-03-02T13:14:42;31.20;37.60
15013;DHT22;7603;49.432;11.418;2024-03-02T13:17:11;31.30;37.60
15013;DHT22;7603;49.432;11.418;2024-03-02T13:19:56;31.20;37.00
15013;DHT22;7603;49.432;11.418;2024-03-02T13:22:22;31.00;37.00
15013;DHT22;7603;49.432;11.418;2024-03-02T13:24:49;30.70;37.50
15013;DHT22;7603;49.432;11.418;2024-03-02T13:27:15;30.90;37.60
15013;DHT22;7603;49.432;11.418;2024-03-02T13:29:42;31.20;36.80
15013;DHT22;7603;49.432;11.418;2024-03-02T13:32:07;31.50;36.30
15013;DHT22;7603;49.432;11.418;2024-03-02T13:34:35;31.70;36.00
15013;DHT22;7603;49.432;11.418;2024-03-02T13:37:01;32.10;36.00
15013;DHT22;7603;49.432;11.418;2024-03-02T13:39:27;32.60;35.30
15013;DHT22;7603;49.432;11.418;2024-03-02T13:41:56;32.60;34.60
15013;DHT22;7603;49.432;11.418;2024-03-02T13:44:29;32.10;34.80
15013;DHT22;7603;49.432;11.418;2024-03-02T13:46:54;31.90;35.00
15013;DHT22;7603;49.432;11.418;2024-03-02T13:49:20;31.80;35.10
15013;DHT22;7603;49.432;11.418;2024-03-02T13:51:45;31.90;35.10
15013;DHT22;7603;49.432;11.418;2024-03-02T13:54:11;31.90;34.90
15013;DHT22;7603;49.432;11.418;2024-03-02T13:56:37;31.40;35.00
15013;DHT22;7603;49.432;11.418;2024-03-02T13:59:04;30.80;35.20
15013;DHT22;7603;49.432;11.418;2024-03-02T14:01:31;30.40;35.70
15013;DHT22;7603;49.432;11.418;2024-03-02T14:03:58;29.90;36.40
15013;DHT22;7603;49.432;11.418;2024-03-02T14:06:24;29.40;36.90
15013;DHT22;7603;49.432;11.418;2024-03-02T14:08:52;28.70;37.60
15013;DHT22;7603;49.432;11.418;2024-03-02T14:11:18;27.90;38.60
15013;DHT22;7603;49.432;11.418;2024-03-02T14:13:44;27.20;39.70
15013;DHT22;7603;49.432;11.418;2024-03-02T14:16:15;26.50;40.90
15013;DHT22;7603;49.432;11.418;2024-03-02T14:18:41;25.70;42.10
15013;DHT22;7603;49.432;11.418;2024-03-02T14:21:07;24.80;43.50
15013;DHT22;7603;49.432;11.418;2024-03-02T14:23:33;23.70;45.10
15013;DHT22;7603;49.432;11.418;2024-03-02T14:25:59;22.70;46.80
15013;DHT22;7603;49.432;11.418;2024-03-02T14:28:25;21.90;48.50
15013;DHT22;7603;49.432;11.418;2024-03-02T14:30:50;21.30;49.70
15013;DHT22;7603;49.432;11.418;2024-03-02T14:33:16;20.90;50.90
15013;DHT22;7603;49.432;11.418;2024-03-02T14:35:42;20.50;51.90
15013;DHT22;7603;49.432;11.418;2024-03-02T14:38:08;20.30;53.20
15013;DHT22;7603;49.432;11.418;2024-03-02T14:40:33;20.00;53.50
15013;DHT22;7603;49.432;11.418;2024-03-02T14:42:59;19.50;54.50
15013;DHT22;7603;49.432;11.418;2024-03-02T14:45:25;19.10;55.40
15013;DHT22;7603;49.432;11.418;2024-03-02T14:47:52;18.70;56.10
15013;DHT22;7603;49.432;11.418;2024-03-02T14:50:18;18.30;57.00
15013;DHT22;7603;49.432;11.418;2024-03-02T14:52:47;17.80;58.00
15013;DHT22;7603;49.432;11.418;2024-03-02T14:55:12;17.40;59.00
15013;DHT22;7603;49.432;11.418;2024-03-02T14:57:38;17.10;59.90
15013;DHT22;7603;49.432;11.418;2024-03-02T15:00:06;16.70;61.30
15013;DHT22;7603;49.432;11.418;2024-03-02T15:02:37;16.20;62.80
15013;DHT22;7603;49.432;11.418;2024-03-02T15:05:03;15.80;64.50
15013;DHT22;7603;49.432;11.418;2024-03-02T15:07:31;15.30;66.10
15013;DHT22;7603;49.432;11.418;2024-03-02T15:09:57;15.00;67.70
15013;DHT22;7603;49.432;11.418;2024-03-02T15:12:23;14.60;69.30
15013;DHT22;7603;49.432;11.418;2024-03-02T15:14:48;14.20;70.90
15013;DHT22;7603;49.432;11.418;2024-03-02T15:17:15;13.80;72.60
15013;DHT22;7603;49.432;11.418;2024-03-02T15:19:45;13.60;73.90
15013;DHT22;7603;49.432;11.418;2024-03-02T15:22:11;13.40;75.40
15013;DHT22;7603;49.432;11.418;2024-03-02T15:24:37;13.20;76.90
15013;DHT22;7603;49.432;11.418;2024-03-02T15:27:04;13.00;77.80
15013;DHT22;7603;49.432;11.418;2024-03-02T15:29:32;12.80;78.70
15013;DHT22;7603;49.432;11.418;2024-03-02T15:31:57;12.70;80.30
15013;DHT22;7603;49.432;11.418;2024-03-02T15:34:24;12.60;81.00
15013;DHT22;7603;49.432;11.418;2024-03-02T15:36:50;12.50;82.00
15013;DHT22;7603;49.432;11.418;2024-03-02T15:39:16;12.50;83.20
15013;DHT22;7603;49.432;11.418;2024-03-02T15:41:44;12.50;83.80
15013;DHT22;7603;49.432;11.418;2024-03-02T15:44:09;12.60;84.40
15013;DHT22;7603;49.432;11.418;2024-03-02T15:46:35;12.90;84.60
15013;DHT22;7603;49.432;11.418;2024-03-02T15:49:01;13.60;84.20
15013;DHT22;7603;49.432;11.418;2024-03-02T15:51:27;14.40;82.60